Time;durP1;ratioP1;P1;durP2;ratioP2;P2;SDS_P1;SDS_P2;PMS_P1;PMS_P2;Temp;Humidity;BMP_temperature;BMP_pressure;BME280_temperature;BME280_humidity;BME280_pressure;Samples;Min_cycle;Max_cycle;Signal;HPM_P1;HPM_P2
2024/02/22 00:02:34;;;;;;;2.20;1.53;;;;;;;;;;4928878;29;20188;-87
2024/02/22 00:05:38;;;;;;;4.17;1.60;;;;;;;;;;4927639;29;20184;-87
2024/02/22 00:08:42;;;;;;;2.67;1.63;;;;;;;;;;4939065;29;20180;-86
2024/02/22 00:11:46;;;;;;;1.40;1.00;;;;;;;;;;4938942;29;20184;-86
2024/02/22 00:14:51;;;;;;;1.10;1.00;;;;;;;;;;4938442;29;20223;-86
2024/02/22 00:17:56;;;;;;;4.13;1.00;;;;;;;;;;4949999;29;20212;-86
2024/02/22 00:21:01;;;;;;;3.53;1.00;;;;;;;;;;4927193;29;20188;-87
2024/02/22 00:24:05;;;;;;;2.80;0.70;;;;;;;;;;4949569;29;20216;-86
2024/02/22 00:27:09;;;;;;;1.37;0.90;;;;;;;;;;4949762;29;20176;-86
2024/02/22 00:30:14;;;;;;;1.50;0.87;;;;;;;;;;4952453;29;20188;-87
2024/02/22 00:33:18;;;;;;;1.53;0.93;;;;;;;;;;4952744;29;20701;-86
2024/02/22 00:36:22;;;;;;;1.43;0.90;;;;;;;;;;4952501;29;20180;-86
2024/02/22 00:39:26;;;;;;;1.77;0.73;;;;;;;;;;4930251;29;20181;-86
2024/02/22 00:42:31;;;;;;;1.87;0.90;;;;;;;;;;4929898;29;20184;-86
2024/02/22 00:45:35;;;;;;;1.20;0.80;;;;;;;;;;4929894;28;20200;-87
2024/02/22 00:48:40;;;;;;;2.30;0.80;;;;;;;;;;4951144;29;20181;-87
2024/02/22 00:51:44;;;;;;;1.00;0.60;;;;;;;;;;4951760;29;20180;-86
2024/02/22 00:54:48;;;;;;;0.90;0.70;;;;;;;;;;4939726;29;20220;-86
2024/02/22 00:57:52;;;;;;;2.67;0.83;;;;;;;;;;4939175;29;20215;-85
2024/02/22 01:00:57;;;;;;;1.63;0.80;;;;;;;;;;4929098;29;20185;-86
2024/02/22 01:04:01;;;;;;;0.80;0.70;;;;;;;;;;4950441;29;20224;-86
2024/02/22 01:07:05;;;;;;;2.43;0.70;;;;;;;;;;4951255;29;20180;-87
2024/02/22 01:10:09;;;;;;;2.77;0.90;;;;;;;;;;4950277;29;20185;-87
2024/02/22 01:13:13;;;;;;;2.50;0.87;;;;;;;;;;4939668;29;20684;-86
2024/02/22 01:16:18;;;;;;;1.37;0.77;;;;;;;;;;4939709;29;20184;-86
2024/02/22 01:19:22;;;;;;;1.63;0.60;;;;;;;;;;4927601;29;20192;-86
2024/02/22 01:22:27;;;;;;;1.13;0.70;;;;;;;;;;4950583;29;20184;-87
2024/02/22 01:25:32;;;;;;;0.80;0.70;;;;;;;;;;4948971;29;20184;-86
2024/02/22 01:28:36;;;;;;;3.13;0.80;;;;;;;;;;4949048;29;20177;-86
2024/02/22 01:31:41;;;;;;;1.50;0.87;;;;;;;;;;4927149;29;20184;-85
2024/02/22 01:34:45;;;;;;;1.33;1.00;;;;;;;;;;4927357;29;20220;-87
2024/02/22 01:37:50;;;;;;;1.00;0.63;;;;;;;;;;4926857;29;20585;-86
2024/02/22 01:40:54;;;;;;;2.43;0.90;;;;;;;;;;4948531;29;20180;-85
2024/02/22 01:43:58;;;;;;;0.80;0.70;;;;;;;;;;4948892;29;20220;-85
2024/02/22 01:47:03;;;;;;;2.63;1.00;;;;;;;;;;4926089;29;20184;-87
2024/02/22 01:50:08;;;;;;;1.43;0.93;;;;;;;;;;4949503;29;20189;-85
2024/02/22 01:53:13;;;;;;;2.47;0.93;;;;;;;;;;4948417;29;20216;-86
2024/02/22 01:56:20;;;;;;;3.20;1.00;;;;;;;;;;4937597;29;20180;-86
2024/02/22 01:59:25;;;;;;;1.70;0.73;;;;;;;;;;4947913;29;20176;-86
2024/02/22 02:02:29;;;;;;;1.53;0.80;;;;;;;;;;4926925;29;20184;-86
2024/02/22 02:05:34;;;;;;;1.93;0.70;;;;;;;;;;4948166;29;20184;-86
2024/02/22 02:08:40;;;;;;;1.43;0.80;;;;;;;;;;4938130;29;20176;-85
2024/02/22 02:11:44;;;;;;;1.83;1.00;;;;;;;;;;4926102;29;20188;-87
2024/02/22 02:14:48;;;;;;;1.07;0.70;;;;;;;;;;4936661;29;20220;-85
2024/02/22 02:17:52;;;;;;;3.73;0.90;;;;;;;;;;4936859;29;20220;-85
2024/02/22 02:21:06;;;;;;;2.37;0.80;;;;;;;;;;4947471;29;20184;-85
2024/02/22 02:24:22;;;;;;;5.40;0.90;;;;;;;;;;4937938;29;20554;-86
2024/02/22 02:27:27;;;;;;;2.10;0.90;;;;;;;;;;4938319;29;20176;-86
2024/02/22 02:30:31;;;;;;;3.57;1.03;;;;;;;;;;4915655;29;20188;-86
2024/02/22 02:33:36;;;;;;;5.03;0.80;;;;;;;;;;4937777;29;20216;-86
2024/02/22 02:36:40;;;;;;;0.90;0.67;;;;;;;;;;4936652;29;20184;-86
2024/02/22 02:39:44;;;;;;;2.67;0.90;;;;;;;;;;4937143;29;20188;-86
2024/02/22 02:42:48;;;;;;;1.20;0.70;;;;;;;;;;4937470;29;20180;-86
2024/02/22 02:45:52;;;;;;;1.00;0.80;;;;;;;;;;4936271;29;20672;-86
2024/02/22 02:48:57;;;;;;;1.00;0.80;;;;;;;;;;4936300;29;20176;-87
2024/02/22 02:52:01;;;;;;;1.27;1.00;;;;;;;;;;4937108;29;20180;-86
2024/02/22 02:55:05;;;;;;;2.50;0.90;;;;;;;;;;4937524;29;20224;-86
2024/02/22 02:58:11;;;;;;;1.20;0.93;;;;;;;;;;4925462;29;20680;-87
2024/02/22 03:01:15;;;;;;;1.77;1.10;;;;;;;;;;4937185;29;20184;-86
2024/02/22 03:04:19;;;;;;;1.23;1.03;;;;;;;;;;4936164;29;20220;-86
2024/02/22 03:07:24;;;;;;;2.37;1.00;;;;;;;;;;4935960;29;20542;-86
2024/02/22 03:10:28;;;;;;;4.53;1.00;;;;;;;;;;4945916;29;20188;-85
2024/02/22 03:13:32;;;;;;;3.83;1.23;;;;;;;;;;4945942;29;20227;-85
2024/02/22 03:16:37;;;;;;;1.43;1.13;;;;;;;;;;4946492;29;20188;-85
2024/02/22 03:19:42;;;;;;;1.33;0.87;;;;;;;;;;4945900;29;20180;-85
2024/02/22 03:22:47;;;;;;;2.40;1.03;;;;;;;;;;4929235;28;20695;-85
2024/02/22 03:25:51;;;;;;;2.47;1.37;;;;;;;;;;4914833;29;20630;-85
2024/02/22 03:28:55;;;;;;;1.50;0.87;;;;;;;;;;4914501;29;20172;-84
2024/02/22 03:32:02;;;;;;;1.00;0.90;;;;;;;;;;4925008;29;20180;-84
2024/02/22 03:35:09;;;;;;;2.53;1.27;;;;;;;;;;4935019;29;20173;-84
2024/02/22 03:38:14;;;;;;;1.87;1.10;;;;;;;;;;4924281;29;20215;-85
2024/02/22 03:41:24;;;;;;;1.30;0.93;;;;;;;;;;4924281;29;20184;-84
2024/02/22 03:44:29;;;;;;;2.33;1.27;;;;;;;;;;4924131;29;20712;-85
2024/02/22 03:47:33;;;;;;;1.63;1.10;;;;;;;;;;4924623;29;20180;-84
2024/02/22 03:50:38;;;;;;;1.70;0.87;;;;;;;;;;4946718;29;20188;-86
2024/02/22 03:53:42;;;;;;;1.63;1.00;;;;;;;;;;4935118;29;20220;-86
2024/02/22 03:56:46;;;;;;;3.07;1.00;;;;;;;;;;4946227;29;20180;-86
2024/02/22 03:59:51;;;;;;;1.53;1.20;;;;;;;;;;4946294;29;20549;-86
2024/02/22 04:02:55;;;;;;;1.63;1.00;;;;;;;;;;4947306;29;20188;-86
2024/02/22 04:06:00;;;;;;;1.63;1.00;;;;;;;;;;4948846;29;20188;-86
2024/02/22 04:09:05;;;;;;;1.63;0.90;;;;;;;;;;4947793;29;20181;-86
2024/02/22 04:12:11;;;;;;;1.50;1.00;;;;;;;;;;4926408;29;20188;-86
2024/02/22 04:15:15;;;;;;;1.90;1.20;;;;;;;;;;4925826;29;20189;-86
2024/02/22 04:18:19;;;;;;;2.03;1.20;;;;;;;;;;4937338;29;20212;-85
2024/02/22 04:21:23;;;;;;;1.97;1.10;;;;;;;;;;4949627;29;20184;-86
2024/02/22 04:24:28;;;;;;;2.10;1.20;;;;;;;;;;4948316;29;20220;-86
2024/02/22 04:27:31;;;;;;;1.60;1.20;;;;;;;;;;4948311;29;20184;-86
2024/02/22 04:30:36;;;;;;;1.67;1.10;;;;;;;;;;4947796;29;20181;-87
2024/02/22 04:33:40;;;;;;;1.67;1.03;;;;;;;;;;4936370;29;20219;-87
2024/02/22 04:36:44;;;;;;;1.50;1.30;;;;;;;;;;4936301;29;20192;-87
2024/02/22 04:39:49;;;;;;;2.83;1.30;;;;;;;;;;4935966;29;20184;-87
2024/02/22 04:42:53;;;;;;;1.63;1.13;;;;;;;;;;4947135;29;20193;-87
2024/02/22 04:45:57;;;;;;;1.40;1.03;;;;;;;;;;4947873;28;20208;-87
2024/02/22 04:49:04;;;;;;;1.83;1.20;;;;;;;;;;4926660;29;20188;-87
2024/02/22 04:52:08;;;;;;;1.47;1.10;;;;;;;;;;4948890;29;20554;-87
2024/02/22 04:55:13;;;;;;;1.67;1.20;;;;;;;;;;4947862;29;20292;-87
2024/02/22 04:58:17;;;;;;;4.40;2.23;;;;;;;;;;4948677;29;20207;-87
2024/02/22 05:01:23;;;;;;;2.43;1.03;;;;;;;;;;4948711;29;20184;-87
2024/02/22 05:04:27;;;;;;;1.97;1.10;;;;;;;;;;4947944;29;20220;-87
2024/02/22 05:07:31;;;;;;;1.77;1.10;;;;;;;;;;4926401;29;20185;-87
2024/02/22 05:10:36;;;;;;;2.10;1.27;;;;;;;;;;4926079;29;20184;-86
2024/02/22 05:13:43;;;;;;;2.53;1.30;;;;;;;;;;4924880;29;20228;-86
2024/02/22 05:16:47;;;;;;;2.40;1.23;;;;;;;;;;4948638;29;20181;-86
2024/02/22 05:19:51;;;;;;;2.10;1.40;;;;;;;;;;4946929;29;20209;-86
2024/02/22 05:22:55;;;;;;;1.30;1.10;;;;;;;;;;4925433;29;20180;-86
2024/02/22 05:26:00;;;;;;;2.13;1.20;;;;;;;;;;4947056;29;20549;-86
2024/02/22 05:29:05;;;;;;;2.60;1.50;;;;;;;;;;4947247;29;20625;-87
2024/02/22 05:32:09;;;;;;;1.67;1.37;;;;;;;;;;4947271;29;20176;-86
2024/02/22 05:35:13;;;;;;;2.23;1.37;;;;;;;;;;4947710;29;20186;-86
2024/02/22 05:38:17;;;;;;;1.80;1.37;;;;;;;;;;4947187;29;20212;-86
2024/02/22 05:41:22;;;;;;;1.60;1.27;;;;;;;;;;4938408;29;20196;-86
2024/02/22 05:44:26;;;;;;;1.30;1.20;;;;;;;;;;4947267;29;20227;-86
2024/02/22 05:47:31;;;;;;;2.00;1.20;;;;;;;;;;4925816;29;20177;-86
2024/02/22 05:50:35;;;;;;;2.43;1.50;;;;;;;;;;4946913;29;20185;-86
2024/02/22 05:53:40;;;;;;;3.20;1.50;;;;;;;;;;4947829;29;20219;-86
2024/02/22 05:56:45;;;;;;;1.80;1.57;;;;;;;;;;4935582;29;20640;-87
2024/02/22 05:59:49;;;;;;;2.93;1.77;;;;;;;;;;4936012;29;20211;-86
2024/02/22 06:02:54;;;;;;;3.27;1.70;;;;;;;;;;4947760;29;20188;-86
2024/02/22 06:05:58;;;;;;;2.77;1.67;;;;;;;;;;4947140;29;20185;-87
2024/02/22 06:09:02;;;;;;;2.93;1.40;;;;;;;;;;4924702;29;20654;-86
2024/02/22 06:12:08;;;;;;;3.27;1.60;;;;;;;;;;4945972;29;20184;-86
2024/02/22 06:15:13;;;;;;;2.83;1.60;;;;;;;;;;4934495;29;20653;-87
2024/02/22 06:18:18;;;;;;;3.23;1.67;;;;;;;;;;4946267;29;20211;-86
2024/02/22 06:21:23;;;;;;;2.13;1.67;;;;;;;;;;4947807;29;20192;-86
2024/02/22 06:24:27;;;;;;;2.90;1.83;;;;;;;;;;4915581;29;20224;-86
2024/02/22 06:27:32;;;;;;;2.40;1.87;;;;;;;;;;4938341;29;20181;-86
2024/02/22 06:30:36;;;;;;;2.40;1.77;;;;;;;;;;4937285;29;20180;-86
2024/02/22 06:33:41;;;;;;;2.27;1.70;;;;;;;;;;4936518;29;20716;-86
2024/02/22 06:36:45;;;;;;;2.10;1.80;;;;;;;;;;4936773;29;20184;-86
2024/02/22 06:39:50;;;;;;;3.13;2.00;;;;;;;;;;4936200;29;20208;-87
2024/02/22 06:42:56;;;;;;;3.50;2.07;;;;;;;;;;4936355;29;20184;-87
2024/02/22 06:46:00;;;;;;;2.40;1.90;;;;;;;;;;4936411;29;20200;-88
2024/02/22 06:49:04;;;;;;;2.67;1.77;;;;;;;;;;4936783;29;20185;-85
2024/02/22 06:52:09;;;;;;;4.20;2.07;;;;;;;;;;4936365;29;20180;-87
2024/02/22 06:55:14;;;;;;;2.40;2.00;;;;;;;;;;4937810;29;20184;-87
2024/02/22 06:58:19;;;;;;;4.43;2.90;;;;;;;;;;4914645;29;20637;-87
2024/02/22 07:01:22;;;;;;;3.27;1.70;;;;;;;;;;4938071;29;20180;-87
2024/02/22 07:04:27;;;;;;;2.90;1.90;;;;;;;;;;4938816;29;20224;-87
2024/02/22 07:07:31;;;;;;;3.20;1.80;;;;;;;;;;4937887;29;20630;-86
2024/02/22 07:10:36;;;;;;;2.73;1.80;;;;;;;;;;4926411;29;20176;-86
2024/02/22 07:13:40;;;;;;;3.00;2.10;;;;;;;;;;4937150;29;20219;-85
2024/02/22 07:16:46;;;;;;;6.20;2.40;;;;;;;;;;4938003;29;20188;-87
2024/02/22 07:19:50;;;;;;;3.50;1.70;;;;;;;;;;4937332;29;20212;-87
2024/02/22 07:22:55;;;;;;;4.23;1.90;;;;;;;;;;4926294;29;20584;-86
2024/02/22 07:25:59;;;;;;;2.93;2.17;;;;;;;;;;4936817;29;20180;-87
2024/02/22 07:29:03;;;;;;;2.97;1.80;;;;;;;;;;4938336;29;20641;-86
2024/02/22 07:32:08;;;;;;;5.43;2.70;;;;;;;;;;4937120;29;20188;-86
2024/02/22 07:35:13;;;;;;;3.93;2.50;;;;;;;;;;4938345;29;20228;-84
2024/02/22 07:38:17;;;;;;;3.43;2.20;;;;;;;;;;4937712;29;20192;-84
2024/02/22 07:41:22;;;;;;;3.77;2.57;;;;;;;;;;4936694;29;20553;-85
2024/02/22 07:44:27;;;;;;;3.50;2.27;;;;;;;;;;4935491;29;20228;-84
2024/02/22 07:47:31;;;;;;;5.30;1.80;;;;;;;;;;4935823;29;20193;-84
2024/02/22 07:50:37;;;;;;;2.97;1.63;;;;;;;;;;4936439;29;20630;-86
2024/02/22 07:53:42;;;;;;;2.90;2.10;;;;;;;;;;4924921;29;20219;-85
2024/02/22 07:56:46;;;;;;;5.43;4.17;;;;;;;;;;4937643;29;20546;-85
2024/02/22 07:59:55;;;;;;;3.70;3.30;;;;;;;;;;4937232;29;20212;-81
2024/02/22 08:03:00;;;;;;;3.97;2.50;;;;;;;;;;4936193;29;20184;-87
2024/02/22 08:06:04;;;;;;;3.90;1.67;;;;;;;;;;4935931;29;20184;-87
2024/02/22 08:09:08;;;;;;;3.03;2.40;;;;;;;;;;4936288;29;20189;-87
2024/02/22 08:12:13;;;;;;;2.57;1.70;;;;;;;;;;4925491;29;20188;-87
2024/02/22 08:15:17;;;;;;;2.07;1.57;;;;;;;;;;4936821;29;20553;-87
2024/02/22 08:18:21;;;;;;;2.83;1.90;;;;;;;;;;4935597;29;20197;-87
2024/02/22 08:21:26;;;;;;;2.67;1.80;;;;;;;;;;4934669;29;20184;-87
2024/02/22 08:24:29;;;;;;;2.73;2.10;;;;;;;;;;4936399;29;20215;-87
2024/02/22 08:27:34;;;;;;;3.83;2.20;;;;;;;;;;4939405;29;20200;-87
2024/02/22 08:30:38;;;;;;;2.97;1.80;;;;;;;;;;4939564;29;20180;-85
2024/02/22 08:33:42;;;;;;;4.20;2.10;;;;;;;;;;4936714;29;20712;-85
2024/02/22 08:36:47;;;;;;;3.27;2.00;;;;;;;;;;4940274;29;20193;-87
2024/02/22 08:39:51;;;;;;;3.50;1.90;;;;;;;;;;4938738;29;20208;-87
2024/02/22 08:43:00;;;;;;;4.00;2.30;;;;;;;;;;4921885;29;20196;-86
2024/02/22 08:46:04;;;;;;;2.77;2.13;;;;;;;;;;4927714;28;20696;-87
2024/02/22 08:49:09;;;;;;;2.83;2.20;;;;;;;;;;4938263;29;20190;-87
2024/02/22 08:52:13;;;;;;;3.53;2.33;;;;;;;;;;4941544;29;20188;-86
2024/02/22 08:55:17;;;;;;;2.90;2.40;;;;;;;;;;4939402;29;20540;-86
2024/02/22 08:58:21;;;;;;;3.57;2.40;;;;;;;;;;4938125;29;20180;-86
2024/02/22 09:01:26;;;;;;;3.10;2.50;;;;;;;;;;4938391;29;20189;-86
2024/02/22 09:04:31;;;;;;;6.37;2.87;;;;;;;;;;4942215;29;20219;-86
2024/02/22 09:07:35;;;;;;;3.60;2.50;;;;;;;;;;4939097;29;20188;-84
2024/02/22 09:10:40;;;;;;;4.70;2.77;;;;;;;;;;4938172;29;20180;-86
2024/02/22 09:13:44;;;;;;;4.13;2.80;;;;;;;;;;4946882;29;20223;-86
2024/02/22 09:16:48;;;;;;;8.50;6.03;;;;;;;;;;4918140;29;20196;-86
2024/02/22 09:19:53;;;;;;;6.10;3.70;;;;;;;;;;4937459;29;20211;-86
2024/02/22 09:22:57;;;;;;;5.43;3.07;;;;;;;;;;4940144;29;20185;-85
2024/02/22 09:26:01;;;;;;;5.37;3.00;;;;;;;;;;4937934;29;20180;-85
2024/02/22 09:29:05;;;;;;;7.50;4.90;;;;;;;;;;4936638;29;20180;-85
2024/02/22 09:32:10;;;;;;;11.03;6.90;;;;;;;;;;4936986;29;20188;-85
2024/02/22 09:35:15;;;;;;;4.73;3.77;;;;;;;;;;4936366;29;20184;-85
2024/02/22 09:38:19;;;;;;;5.67;3.90;;;;;;;;;;4938594;29;20188;-85
2024/02/22 09:41:25;;;;;;;4.93;3.27;;;;;;;;;;4936881;29;20181;-85
2024/02/22 09:44:32;;;;;;;7.10;3.83;;;;;;;;;;4936690;29;20235;-84
2024/02/22 09:47:36;;;;;;;5.93;3.83;;;;;;;;;;4937098;29;20185;-85
2024/02/22 09:50:41;;;;;;;4.60;3.43;;;;;;;;;;4914930;29;20180;-84
2024/02/22 09:53:45;;;;;;;5.43;4.27;;;;;;;;;;4925076;29;20228;-85
2024/02/22 09:56:50;;;;;;;6.33;4.07;;;;;;;;;;4936742;29;20188;-85
2024/02/22 09:59:54;;;;;;;4.67;3.70;;;;;;;;;;4940989;29;20216;-84
2024/02/22 10:03:00;;;;;;;7.60;4.37;;;;;;;;;;4942732;29;20199;-84
2024/02/22 10:06:18;;;;;;;5.37;3.70;;;;;;;;;;4936572;29;20245;-84
2024/02/22 10:09:22;;;;;;;4.90;3.50;;;;;;;;;;4936979;29;20176;-84
2024/02/22 10:12:32;;;;;;;6.50;3.80;;;;;;;;;;4936977;29;20629;-84
2024/02/22 10:15:37;;;;;;;4.87;3.67;;;;;;;;;;4937597;29;20549;-85
2024/02/22 10:18:42;;;;;;;5.37;4.00;;;;;;;;;;4936618;29;20180;-86
2024/02/22 10:21:55;;;;;;;6.97;3.80;;;;;;;;;;4925469;29;20177;-86
2024/02/22 10:25:14;;;;;;;7.60;4.43;;;;;;;;;;4925933;29;20208;-86
2024/02/22 10:28:19;;;;;;;6.83;4.00;;;;;;;;;;4936029;29;20180;-86
2024/02/22 10:31:24;;;;;;;7.67;3.97;;;;;;;;;;4924996;29;20176;-86
2024/02/22 10:34:29;;;;;;;5.33;3.73;;;;;;;;;;4935690;29;20216;-86
2024/02/22 10:37:34;;;;;;;5.13;3.63;;;;;;;;;;4913912;29;20181;-86
2024/02/22 10:40:39;;;;;;;7.17;4.20;;;;;;;;;;4936207;29;20208;-86
2024/02/22 10:43:48;;;;;;;4.00;3.40;;;;;;;;;;4935117;29;20224;-86
2024/02/22 10:46:52;;;;;;;4.97;3.80;;;;;;;;;;4935470;29;20184;-86
2024/02/22 10:49:59;;;;;;;4.37;3.57;;;;;;;;;;4924918;29;20184;-86
2024/02/22 10:53:04;;;;;;;5.97;4.00;;;;;;;;;;4914881;29;20224;-86
2024/02/22 10:56:11;;;;;;;5.03;3.80;;;;;;;;;;4924469;29;20184;-86
2024/02/22 10:59:20;;;;;;;3.97;3.00;;;;;;;;;;4935278;29;20189;-86
2024/02/22 11:02:27;;;;;;;5.10;3.50;;;;;;;;;;4935119;29;20603;-85
2024/02/22 11:05:38;;;;;;;5.37;3.80;;;;;;;;;;4936415;29;20181;-86
2024/02/22 11:08:54;;;;;;;5.67;3.67;;;;;;;;;;4924493;29;20180;-86
2024/02/22 11:12:02;;;;;;;4.90;3.67;;;;;;;;;;4934528;29;20542;-85
2024/02/22 11:15:15;;;;;;;4.20;3.53;;;;;;;;;;4934140;29;20182;-86
2024/02/22 11:18:24;;;;;;;5.20;3.90;;;;;;;;;;4934303;29;20185;-86
2024/02/22 11:21:29;;;;;;;5.37;3.97;;;;;;;;;;4913068;29;20204;-86
2024/02/22 11:24:33;;;;;;;6.37;3.60;;;;;;;;;;4912931;29;20224;-84
2024/02/22 11:27:37;;;;;;;5.47;3.80;;;;;;;;;;4934846;29;20184;-86
2024/02/22 11:30:50;;;;;;;5.03;3.80;;;;;;;;;;4934566;29;20176;-86
2024/02/22 11:34:00;;;;;;;3.93;3.23;;;;;;;;;;4934295;29;20220;-86
2024/02/22 11:37:16;;;;;;;5.50;3.60;;;;;;;;;;4934244;29;20181;-86
2024/02/22 11:40:20;;;;;;;5.97;3.70;;;;;;;;;;4912550;29;20213;-85
2024/02/22 11:43:28;;;;;;;4.73;3.17;;;;;;;;;;4934098;29;20219;-86
2024/02/22 11:46:39;;;;;;;6.07;3.03;;;;;;;;;;4913541;29;20189;-83
2024/02/22 11:49:44;;;;;;;3.70;2.87;;;;;;;;;;4923362;29;20520;-86
2024/02/22 11:52:49;;;;;;;4.07;2.87;;;;;;;;;;4934561;29;20545;-87
2024/02/22 11:55:53;;;;;;;3.67;2.93;;;;;;;;;;4934834;29;20180;-87
2024/02/22 11:58:58;;;;;;;4.07;3.10;;;;;;;;;;4935501;29;20527;-86
2024/02/22 12:02:04;;;;;;;4.17;3.07;;;;;;;;;;4935053;29;20177;-86
2024/02/22 12:05:10;;;;;;;3.70;2.77;;;;;;;;;;4923751;29;20188;-86
2024/02/22 12:08:15;;;;;;;4.93;3.10;;;;;;;;;;4934743;29;20665;-86
2024/02/22 12:11:19;;;;;;;3.97;2.73;;;;;;;;;;4924097;29;20510;-87
2024/02/22 12:14:24;;;;;;;4.47;3.00;;;;;;;;;;4934567;29;20224;-86
2024/02/22 12:17:31;;;;;;;3.80;2.40;;;;;;;;;;4923696;29;20188;-86
2024/02/22 12:20:38;;;;;;;3.70;2.80;;;;;;;;;;4934274;29;20212;-87
2024/02/22 12:23:42;;;;;;;3.90;3.20;;;;;;;;;;4913649;29;20215;-86
2024/02/22 12:26:51;;;;;;;4.17;2.90;;;;;;;;;;4933301;29;20192;-87
2024/02/22 12:29:57;;;;;;;4.27;2.83;;;;;;;;;;4923650;29;20180;-87
2024/02/22 12:33:08;;;;;;;5.77;2.53;;;;;;;;;;4944560;29;20185;-86
2024/02/22 12:36:12;;;;;;;3.07;2.70;;;;;;;;;;4936190;29;20176;-87
2024/02/22 12:39:19;;;;;;;3.43;2.87;;;;;;;;;;4924824;29;20184;-87
2024/02/22 12:42:23;;;;;;;4.87;2.60;;;;;;;;;;4924579;29;20181;-86
2024/02/22 12:45:28;;;;;;;5.60;2.67;;;;;;;;;;4945750;29;20204;-86
2024/02/22 12:48:32;;;;;;;3.53;2.57;;;;;;;;;;4923096;29;20184;-90
2024/02/22 12:51:36;;;;;;;4.43;2.53;;;;;;;;;;4944651;29;20184;-87
2024/02/22 12:54:41;;;;;;;4.37;2.90;;;;;;;;;;4932993;29;20216;-88
2024/02/22 12:57:46;;;;;;;3.67;2.40;;;;;;;;;;4933569;29;20193;-87
2024/02/22 13:00:50;;;;;;;3.77;2.80;;;;;;;;;;4944162;29;20212;-87
2024/02/22 13:03:56;;;;;;;2.87;2.47;;;;;;;;;;4932926;29;20219;-87
2024/02/22 13:07:00;;;;;;;3.20;2.57;;;;;;;;;;4932728;29;20184;-87
2024/02/22 13:10:05;;;;;;;3.00;2.70;;;;;;;;;;4944392;29;20188;-87
2024/02/22 13:13:09;;;;;;;3.90;2.90;;;;;;;;;;4932743;29;20223;-87
2024/02/22 13:16:13;;;;;;;4.80;2.80;;;;;;;;;;4932134;29;20188;-87
2024/02/22 13:19:19;;;;;;;3.67;2.83;;;;;;;;;;4942977;29;20184;-86
2024/02/22 13:22:23;;;;;;;3.17;2.33;;;;;;;;;;4942984;29;20185;-87
2024/02/22 13:25:27;;;;;;;2.93;2.53;;;;;;;;;;4921133;29;20522;-87
2024/02/22 13:28:32;;;;;;;4.07;2.60;;;;;;;;;;4930631;29;20185;-86
2024/02/22 13:31:36;;;;;;;3.57;2.83;;;;;;;;;;4919470;29;20189;-86
2024/02/22 13:34:40;;;;;;;3.53;2.20;;;;;;;;;;4917859;29;20220;-86
2024/02/22 13:37:46;;;;;;;4.47;2.43;;;;;;;;;;4918523;29;20184;-86
2024/02/22 13:40:50;;;;;;;5.03;3.47;;;;;;;;;;4917452;29;20216;-86
2024/02/22 13:43:55;;;;;;;2.90;2.33;;;;;;;;;;4916947;29;20224;-86
2024/02/22 13:46:59;;;;;;;3.60;2.50;;;;;;;;;;4927983;29;20185;-87
2024/02/22 13:50:04;;;;;;;3.00;2.20;;;;;;;;;;4916548;29;20185;-86
2024/02/22 13:53:08;;;;;;;3.37;2.40;;;;;;;;;;4938001;29;20224;-86
2024/02/22 13:56:13;;;;;;;5.40;3.93;;;;;;;;;;4927194;29;20188;-86
2024/02/22 13:59:17;;;;;;;9.70;7.80;;;;;;;;;;4937738;29;20180;-84
2024/02/22 14:02:21;;;;;;;22.47;16.07;;;;;;;;;;4926736;29;20220;-84
2024/02/22 14:05:25;;;;;;;10.37;8.20;;;;;;;;;;4937499;29;20191;-84
2024/02/22 14:08:30;;;;;;;2.40;2.20;;;;;;;;;;4937364;29;20188;-85
2024/02/22 14:11:36;;;;;;;3.30;2.87;;;;;;;;;;4926665;29;20180;-85
2024/02/22 14:14:40;;;;;;;8.93;6.53;;;;;;;;;;4904598;29;20224;-85
2024/02/22 14:17:45;;;;;;;9.73;4.13;;;;;;;;;;4937437;29;20184;-84
2024/02/22 14:20:50;;;;;;;5.43;2.90;;;;;;;;;;4936997;29;20220;-85
2024/02/22 14:23:55;;;;;;;2.17;1.67;;;;;;;;;;4937048;29;20224;-86
2024/02/22 14:27:00;;;;;;;1.53;1.20;;;;;;;;;;4937189;29;20522;-85
2024/02/22 14:30:06;;;;;;;1.47;1.30;;;;;;;;;;4937838;29;20184;-84
2024/02/22 14:33:11;;;;;;;1.37;1.20;;;;;;;;;;4938160;29;20208;-85
2024/02/22 14:36:15;;;;;;;1.20;1.10;;;;;;;;;;4927188;29;20180;-85
2024/02/22 14:39:19;;;;;;;1.73;0.97;;;;;;;;;;4915664;29;20184;-85
2024/02/22 14:42:24;;;;;;;1.43;0.93;;;;;;;;;;4937782;29;20673;-85
2024/02/22 14:45:28;;;;;;;1.33;0.90;;;;;;;;;;4926257;29;20208;-85
2024/02/22 14:48:36;;;;;;;3.23;1.07;;;;;;;;;;4937525;29;20188;-84
2024/02/22 14:51:41;;;;;;;6.37;3.83;;;;;;;;;;4915341;29;20522;-85
2024/02/22 14:54:45;;;;;;;2.60;1.97;;;;;;;;;;4926051;29;20216;-85
2024/02/22 14:57:51;;;;;;;1.93;1.40;;;;;;;;;;4936997;29;20184;-86
2024/02/22 15:00:56;;;;;;;2.27;1.50;;;;;;;;;;4935963;29;20212;-85
2024/02/22 15:04:00;;;;;;;3.30;1.57;;;;;;;;;;4914226;29;20220;-85
2024/02/22 15:07:05;;;;;;;1.23;1.13;;;;;;;;;;4925301;29;20188;-85
2024/02/22 15:10:09;;;;;;;1.50;1.40;;;;;;;;;;4937359;29;20185;-84
2024/02/22 15:13:15;;;;;;;3.17;1.30;;;;;;;;;;4935241;29;20212;-86
2024/02/22 15:16:42;;;;;;;1.70;1.20;;;;;;;;;;4924731;29;20531;-86
2024/02/22 15:19:46;;;;;;;2.87;1.13;;;;;;;;;;4936118;29;20185;-86
2024/02/22 15:22:52;;;;;;;5.03;1.07;;;;;;;;;;4984728;23;20575;-88
2024/02/22 15:25:56;;;;;;;0.60;0.60;;;;;;;;;;4953496;29;20188;-86
2024/02/22 15:29:01;;;;;;;2.10;0.80;;;;;;;;;;4952935;29;20184;-86
2024/02/22 15:32:06;;;;;;;1.03;0.80;;;;;;;;;;4941569;28;20229;-86
2024/02/22 15:35:10;;;;;;;2.43;0.90;;;;;;;;;;4963305;28;20188;-86
2024/02/22 15:38:14;;;;;;;0.70;0.70;;;;;;;;;;4942292;28;20180;-86
2024/02/22 15:41:20;;;;;;;1.53;0.90;;;;;;;;;;4952936;28;20203;-87
2024/02/22 15:44:24;;;;;;;3.07;1.60;;;;;;;;;;4930388;29;20188;-88
2024/02/22 15:57:33;;;;;;;1.80;0.90;;;;;;;;;;4972061;28;20210;-85
2024/02/22 16:00:37;;;;;;;1.43;0.90;;;;;;;;;;4963026;28;20571;-86
2024/02/22 16:03:41;;;;;;;0.90;0.70;;;;;;;;;;4951525;28;20563;-86
2024/02/22 16:06:46;;;;;;;0.90;0.70;;;;;;;;;;4962541;28;20202;-86
2024/02/22 16:09:49;;;;;;;2.87;0.87;;;;;;;;;;4973344;28;20189;-86
2024/02/22 16:12:56;;;;;;;1.67;0.80;;;;;;;;;;4951022;28;20218;-86
2024/02/22 16:16:01;;;;;;;0.90;0.70;;;;;;;;;;4951298;28;20178;-86
2024/02/22 16:19:05;;;;;;;2.40;0.80;;;;;;;;;;4957350;28;20211;-86
2024/02/22 16:22:11;;;;;;;1.63;1.00;;;;;;;;;;4943885;28;20231;-87
2024/02/22 16:25:16;;;;;;;0.80;0.80;;;;;;;;;;4955228;29;20529;-86
2024/02/22 16:28:20;;;;;;;1.13;1.00;;;;;;;;;;4955219;29;20521;-86
2024/02/22 16:31:24;;;;;;;3.17;0.80;;;;;;;;;;4954818;28;20184;-87
2024/02/22 16:34:28;;;;;;;1.57;0.97;;;;;;;;;;4954955;29;20188;-86
2024/02/22 16:37:32;;;;;;;1.37;0.83;;;;;;;;;;4955401;29;20180;-86
2024/02/22 16:40:37;;;;;;;1.30;0.90;;;;;;;;;;4944321;29;20187;-87
2024/02/22 16:43:41;;;;;;;2.20;0.80;;;;;;;;;;4955088;28;20211;-86
2024/02/22 16:46:46;;;;;;;1.40;1.00;;;;;;;;;;4943840;29;20191;-87
2024/02/22 16:49:51;;;;;;;1.17;0.80;;;;;;;;;;4955616;29;20632;-85
2024/02/22 16:52:55;;;;;;;1.20;1.00;;;;;;;;;;4954652;28;20211;-86
2024/02/22 16:56:01;;;;;;;1.20;0.90;;;;;;;;;;4965542;28;20188;-85
2024/02/22 16:59:05;;;;;;;1.23;0.83;;;;;;;;;;4954741;29;20184;-86
2024/02/22 17:02:09;;;;;;;1.43;1.10;;;;;;;;;;4954349;28;20231;-86
2024/02/22 17:10:20;;;;;;;1.73;1.03;;;;;;;;;;4954722;29;20178;-90
2024/02/22 17:14:00;;;;;;;1.63;0.90;;;;;;;;;;4955461;28;20184;-90
2024/02/22 17:17:37;;;;;;;1.10;1.00;;;;;;;;;;4955579;28;20203;-90
2024/02/22 17:20:44;;;;;;;2.23;0.90;;;;;;;;;;4943455;29;20187;-88
2024/02/22 17:23:48;;;;;;;2.00;1.30;;;;;;;;;;4943335;29;20342;-86
2024/02/22 17:27:21;;;;;;;1.93;1.20;;;;;;;;;;4943288;29;20188;-89
2024/02/22 17:30:25;;;;;;;1.83;1.13;;;;;;;;;;4954184;29;20521;-88
2024/02/22 17:33:30;;;;;;;1.50;1.13;;;;;;;;;;4932539;28;20215;-89
2024/02/22 17:36:34;;;;;;;1.00;0.90;;;;;;;;;;4932392;29;20184;-88
2024/02/22 17:39:39;;;;;;;1.83;1.00;;;;;;;;;;4943180;29;20188;-88
2024/02/22 17:42:44;;;;;;;3.70;1.60;;;;;;;;;;4932237;28;20227;-89
2024/02/22 17:45:48;;;;;;;1.40;1.27;;;;;;;;;;4932253;29;20192;-88
2024/02/22 17:48:54;;;;;;;2.93;1.30;;;;;;;;;;4943228;29;20192;-88
2024/02/22 17:52:00;;;;;;;2.67;1.20;;;;;;;;;;4932149;28;20223;-88
2024/02/22 17:55:09;;;;;;;1.23;1.03;;;;;;;;;;4932213;29;20187;-88
2024/02/22 17:58:13;;;;;;;1.60;1.10;;;;;;;;;;4932038;29;20176;-88
2024/02/22 18:01:18;;;;;;;1.73;1.10;;;;;;;;;;4931907;28;20184;-88
2024/02/22 18:04:23;;;;;;;2.40;1.10;;;;;;;;;;4943786;29;20192;-88
2024/02/22 18:07:27;;;;;;;2.07;1.20;;;;;;;;;;4931643;29;20191;-88
2024/02/22 18:10:35;;;;;;;1.10;1.00;;;;;;;;;;4931744;29;20188;-88
2024/02/22 18:13:39;;;;;;;2.47;1.00;;;;;;;;;;4942383;28;20220;-88
2024/02/22 18:16:43;;;;;;;3.63;1.10;;;;;;;;;;4942769;29;20179;-88
2024/02/22 18:19:47;;;;;;;2.17;0.97;;;;;;;;;;4931856;29;20636;-88
2024/02/22 18:22:52;;;;;;;0.80;0.80;;;;;;;;;;4930568;28;20231;-88
2024/02/22 18:25:56;;;;;;;1.23;0.80;;;;;;;;;;4931601;29;20187;-88
2024/02/22 18:29:00;;;;;;;1.47;1.00;;;;;;;;;;4931478;29;20180;-88
2024/02/22 18:32:05;;;;;;;1.67;1.00;;;;;;;;;;4931295;28;20219;-88
2024/02/22 18:35:08;;;;;;;3.50;0.93;;;;;;;;;;4942707;29;20188;-87
2024/02/22 18:38:13;;;;;;;1.00;0.90;;;;;;;;;;4942183;29;20188;-88
2024/02/22 18:41:18;;;;;;;0.87;0.80;;;;;;;;;;4931603;28;20183;-89
2024/02/22 18:44:22;;;;;;;1.00;0.90;;;;;;;;;;4931466;29;20176;-88
2024/02/22 18:47:26;;;;;;;0.83;0.83;;;;;;;;;;4942008;29;20195;-88